Time;durP1;ratioP1;P1;durP2;ratioP2;P2;SDS_P1;SDS_P2;PMS_P1;PMS_P2;Temp;Humidity;BMP_temperature;BMP_pressure;BME280_temperature;BME280_humidity;BME280_pressure;Samples;Min_cycle;Max_cycle;Signal;HPM_P1;HPM_P2
2022/08/15 00:00:20;;;;;;;9.30;8.00;;;;;;;;;;5077811;28;20037;-77
2022/08/15 00:02:48;;;;;;;9.35;8.35;;;;;;;;;;5078635;28;20036;-77
2022/08/15 00:05:20;;;;;;;11.27;9.50;;;;;;;;;;5078875;28;20032;-77
2022/08/15 00:07:46;;;;;;;10.90;9.43;;;;;;;;;;5076562;28;20033;-77
2022/08/15 00:10:13;;;;;;;12.70;9.40;;;;;;;;;;5077184;28;20044;-77
2022/08/15 00:12:40;;;;;;;11.27;9.55;;;;;;;;;;5076825;28;20033;-77
2022/08/15 00:15:08;;;;;;;10.57;9.48;;;;;;;;;;5078335;28;20021;-77
2022/08/15 00:17:35;;;;;;;10.38;9.07;;;;;;;;;;5078399;28;20056;-77
2022/08/15 00:20:01;;;;;;;10.25;8.90;;;;;;;;;;5077482;28;20041;-77
2022/08/15 00:22:27;;;;;;;11.45;9.45;;;;;;;;;;5076762;28;20040;-78
2022/08/15 00:24:54;;;;;;;11.40;8.82;;;;;;;;;;5078344;28;20029;-77
2022/08/15 00:27:23;;;;;;;12.32;9.40;;;;;;;;;;5077306;28;20066;-78
2022/08/15 00:29:51;;;;;;;10.48;9.45;;;;;;;;;;5078596;28;20029;-77
2022/08/15 00:32:19;;;;;;;13.73;10.80;;;;;;;;;;5077585;28;20040;-78
2022/08/15 00:34:46;;;;;;;12.52;11.25;;;;;;;;;;5078571;28;20089;-77
2022/08/15 00:37:12;;;;;;;13.55;11.48;;;;;;;;;;5076920;28;20056;-77
2022/08/15 00:39:39;;;;;;;15.88;11.93;;;;;;;;;;5077852;28;20051;-77
2022/08/15 00:42:08;;;;;;;13.68;11.30;;;;;;;;;;5077854;28;20032;-77
2022/08/15 00:44:41;;;;;;;13.35;11.88;;;;;;;;;;5088852;22;20104;-74
2022/08/15 00:47:10;;;;;;;13.50;11.50;;;;;;;;;;5019289;28;20064;-74
2022/08/15 00:49:37;;;;;;;13.13;11.73;;;;;;;;;;5020588;28;20573;-75
2022/08/15 00:52:06;;;;;;;12.68;10.38;;;;;;;;;;5022939;28;20044;-75
2022/08/15 00:54:40;;;;;;;13.38;11.45;;;;;;;;;;5024121;28;20046;-74
2022/08/15 00:57:19;;;;;;;14.70;11.40;;;;;;;;;;5030673;28;20072;-75
2022/08/15 00:59:51;;;;;;;13.63;12.23;;;;;;;;;;5033076;28;20432;-75
2022/08/15 01:02:19;;;;;;;14.68;13.05;;;;;;;;;;5016603;28;20160;-76
2022/08/15 01:04:45;;;;;;;24.05;13.68;;;;;;;;;;5012833;28;20101;-76
2022/08/15 01:07:11;;;;;;;15.45;13.85;;;;;;;;;;5013049;28;20041;-75
2022/08/15 01:09:37;;;;;;;17.33;15.25;;;;;;;;;;5012202;28;20038;-75
2022/08/15 01:12:07;;;;;;;16.00;14.40;;;;;;;;;;5025584;28;20420;-76
2022/08/15 01:14:35;;;;;;;17.45;14.98;;;;;;;;;;5016686;28;20043;-76
2022/08/15 01:17:01;;;;;;;14.65;12.95;;;;;;;;;;5004699;28;20046;-76
2022/08/15 01:19:30;;;;;;;14.48;12.90;;;;;;;;;;5008140;28;20485;-75
2022/08/15 01:21:56;;;;;;;14.25;12.75;;;;;;;;;;5014411;28;20132;-75
2022/08/15 01:24:41;;;;;;;13.80;12.40;;;;;;;;;;5010526;28;20049;-76
2022/08/15 01:27:07;;;;;;;13.40;12.05;;;;;;;;;;5031372;28;20053;-75
2022/08/15 01:29:33;;;;;;;14.43;12.48;;;;;;;;;;5031058;28;20516;-74
2022/08/15 01:31:59;;;;;;;13.60;11.48;;;;;;;;;;5018079;28;20448;-76
2022/08/15 01:34:25;;;;;;;13.63;12.23;;;;;;;;;;5009821;28;20529;-75
2022/08/15 01:36:51;;;;;;;13.05;11.68;;;;;;;;;;5007140;28;20540;-76
2022/08/15 01:39:29;;;;;;;15.05;13.45;;;;;;;;;;5020640;28;20048;-76
2022/08/15 01:42:01;;;;;;;15.68;13.05;;;;;;;;;;5031172;28;20080;-76
2022/08/15 01:44:35;;;;;;;16.17;14.30;;;;;;;;;;5017106;28;20047;-76
2022/08/15 01:47:07;;;;;;;13.73;12.32;;;;;;;;;;5031071;28;20130;-76
2022/08/15 01:49:36;;;;;;;14.43;12.93;;;;;;;;;;5013256;28;20109;-76
2022/08/15 01:52:03;;;;;;;14.65;12.95;;;;;;;;;;5015918;28;20068;-76
2022/08/15 01:54:32;;;;;;;13.98;12.57;;;;;;;;;;5010395;28;20120;-76
2022/08/15 01:56:59;;;;;;;14.48;12.98;;;;;;;;;;5027258;28;20041;-76
2022/08/15 01:59:28;;;;;;;14.77;13.00;;;;;;;;;;5012756;28;20053;-76
2022/08/15 02:02:05;;;;;;;15.25;13.65;;;;;;;;;;5001323;28;20092;-75
2022/08/15 02:04:32;;;;;;;16.00;13.30;;;;;;;;;;4996169;28;20402;-76
2022/08/15 02:07:00;;;;;;;15.15;13.40;;;;;;;;;;5027752;28;20045;-76
2022/08/15 02:09:29;;;;;;;15.65;13.57;;;;;;;;;;5032378;28;20045;-76
2022/08/15 02:11:57;;;;;;;15.10;13.20;;;;;;;;;;5024789;28;20584;-75
2022/08/15 02:14:27;;;;;;;14.07;12.68;;;;;;;;;;5011614;28;20088;-76
2022/08/15 02:16:54;;;;;;;14.70;13.10;;;;;;;;;;5028055;28;20064;-76
2022/08/15 02:19:20;;;;;;;16.25;13.93;;;;;;;;;;5034190;28;20098;-76
2022/08/15 02:21:47;;;;;;;19.65;14.82;;;;;;;;;;5027082;28;20127;-76
2022/08/15 02:24:21;;;;;;;16.33;14.63;;;;;;;;;;5018434;28;20141;-76
2022/08/15 02:26:48;;;;;;;16.70;13.60;;;;;;;;;;5014080;28;20046;-75
2022/08/15 02:29:20;;;;;;;16.15;13.57;;;;;;;;;;5015426;28;20121;-76
2022/08/15 02:31:51;;;;;;;15.32;13.82;;;;;;;;;;4998130;28;20433;-76
2022/08/15 02:34:18;;;;;;;17.15;14.00;;;;;;;;;;5027413;28;20068;-76
2022/08/15 02:36:48;;;;;;;15.68;13.50;;;;;;;;;;5024687;28;20045;-75
2022/08/15 02:39:16;;;;;;;16.20;13.68;;;;;;;;;;5033824;28;20108;-76
2022/08/15 02:41:48;;;;;;;15.95;13.02;;;;;;;;;;5005653;28;20049;-75
2022/08/15 02:44:16;;;;;;;13.77;12.38;;;;;;;;;;5014653;28;20096;-75
2022/08/15 02:46:43;;;;;;;14.82;13.15;;;;;;;;;;5013001;28;20126;-76
2022/08/15 02:49:12;;;;;;;14.32;12.82;;;;;;;;;;5014584;28;20074;-75
2022/08/15 02:51:42;;;;;;;16.35;13.88;;;;;;;;;;5002434;28;20051;-76
2022/08/15 02:54:09;;;;;;;16.20;13.88;;;;;;;;;;5011040;28;20042;-74
2022/08/15 02:56:35;;;;;;;17.25;14.32;;;;;;;;;;5016953;28;20076;-76
2022/08/15 02:59:09;;;;;;;16.02;14.32;;;;;;;;;;4999025;28;20375;-76
2022/08/15 03:01:37;;;;;;;16.70;14.48;;;;;;;;;;5019336;28;20046;-75
2022/08/15 03:04:07;;;;;;;16.48;14.20;;;;;;;;;;5014986;28;20049;-76
2022/08/15 03:06:34;;;;;;;16.33;14.48;;;;;;;;;;5021433;28;20072;-75
2022/08/15 03:09:06;;;;;;;17.67;15.02;;;;;;;;;;5026373;28;20118;-75
2022/08/15 03:11:32;;;;;;;16.98;14.95;;;;;;;;;;5027521;28;20041;-76
2022/08/15 03:14:01;;;;;;;17.75;15.02;;;;;;;;;;5033169;28;20045;-76
2022/08/15 03:16:35;;;;;;;17.88;15.82;;;;;;;;;;5033306;28;20045;-76
2022/08/15 03:19:01;;;;;;;18.63;16.63;;;;;;;;;;5034333;28;20042;-76
2022/08/15 03:21:27;;;;;;;17.42;15.63;;;;;;;;;;5026357;28;20168;-76
2022/08/15 03:23:53;;;;;;;18.88;16.20;;;;;;;;;;5032967;28;20045;-76
2022/08/15 03:26:21;;;;;;;21.27;16.50;;;;;;;;;;5026714;28;20409;-75
2022/08/15 03:28:47;;;;;;;20.65;16.23;;;;;;;;;;5023342;28;20143;-76
2022/08/15 03:31:16;;;;;;;19.98;16.88;;;;;;;;;;5032915;28;20042;-76
2022/08/15 03:33:46;;;;;;;17.35;15.55;;;;;;;;;;5020672;28;20046;-76
2022/08/15 03:36:13;;;;;;;20.38;15.38;;;;;;;;;;5013552;28;20050;-75
2022/08/15 03:38:39;;;;;;;17.33;14.38;;;;;;;;;;5015241;28;20046;-75
2022/08/15 03:41:08;;;;;;;14.68;12.20;;;;;;;;;;5032614;28;20133;-75
2022/08/15 03:43:35;;;;;;;15.40;13.75;;;;;;;;;;5034128;28;20052;-76
2022/08/15 03:46:04;;;;;;;17.85;14.57;;;;;;;;;;5017416;28;20090;-76
2022/08/15 03:48:32;;;;;;;20.70;16.67;;;;;;;;;;5010053;28;20453;-76
2022/08/15 03:50:59;;;;;;;19.20;15.70;;;;;;;;;;5002117;28;20045;-75
2022/08/15 03:53:29;;;;;;;20.42;16.35;;;;;;;;;;5024225;28;20045;-75
2022/08/15 03:55:56;;;;;;;20.67;16.58;;;;;;;;;;5031497;28;20041;-75
2022/08/15 03:58:22;;;;;;;19.02;16.52;;;;;;;;;;5031400;28;20069;-75
2022/08/15 04:00:49;;;;;;;19.50;17.05;;;;;;;;;;5031317;28;20049;-75
2022/08/15 04:03:17;;;;;;;21.70;16.48;;;;;;;;;;5022676;28;20053;-75
2022/08/15 04:05:45;;;;;;;20.15;16.00;;;;;;;;;;5017566;28;20042;-75
2022/08/15 04:08:13;;;;;;;20.98;16.40;;;;;;;;;;5022081;28;20103;-75
2022/08/15 04:10:39;;;;;;;17.88;15.98;;;;;;;;;;5026501;28;20042;-76
2022/08/15 04:13:06;;;;;;;17.45;15.55;;;;;;;;;;5013994;28;20053;-75
2022/08/15 04:15:32;;;;;;;17.88;16.02;;;;;;;;;;5015803;28;20045;-75
2022/08/15 04:18:01;;;;;;;16.77;15.00;;;;;;;;;;5030420;28;20203;-75
2022/08/15 04:20:28;;;;;;;18.90;15.38;;;;;;;;;;5027130;28;20140;-75
2022/08/15 04:22:54;;;;;;;19.05;16.13;;;;;;;;;;5018344;28;20041;-76
2022/08/15 04:25:22;;;;;;;18.02;15.77;;;;;;;;;;5031499;28;20107;-76
2022/08/15 04:27:49;;;;;;;18.42;16.13;;;;;;;;;;5028387;28;20496;-76
2022/08/15 04:30:16;;;;;;;22.60;17.13;;;;;;;;;;5029463;28;20392;-76
2022/08/15 04:32:42;;;;;;;18.42;16.23;;;;;;;;;;5019980;28;20049;-75
2022/08/15 04:35:11;;;;;;;20.17;17.80;;;;;;;;;;5022233;28;20041;-76
2022/08/15 04:37:39;;;;;;;19.30;17.13;;;;;;;;;;5017813;28;20053;-75
2022/08/15 04:40:06;;;;;;;20.63;17.30;;;;;;;;;;5012450;28;20082;-75
2022/08/15 04:42:36;;;;;;;20.73;17.98;;;;;;;;;;5022021;28;20044;-76
2022/08/15 04:45:05;;;;;;;20.00;17.25;;;;;;;;;;5024237;28;20061;-76
2022/08/15 04:47:31;;;;;;;19.58;16.98;;;;;;;;;;5023368;28;20041;-76
2022/08/15 04:49:57;;;;;;;20.73;17.45;;;;;;;;;;5033009;28;20086;-75
2022/08/15 04:52:23;;;;;;;21.20;17.23;;;;;;;;;;5016140;28;20042;-75
2022/08/15 04:54:49;;;;;;;19.77;16.05;;;;;;;;;;5013185;28;20046;-76
2022/08/15 04:57:15;;;;;;;19.10;16.42;;;;;;;;;;5019362;28;20052;-76
2022/08/15 04:59:41;;;;;;;20.17;15.75;;;;;;;;;;5008358;28;20033;-76
2022/08/15 05:02:09;;;;;;;21.08;16.85;;;;;;;;;;5012770;28;20045;-76
2022/08/15 05:04:39;;;;;;;18.67;16.63;;;;;;;;;;5031071;28;20045;-76
2022/08/15 05:07:05;;;;;;;18.95;16.95;;;;;;;;;;5027561;28;20109;-75
2022/08/15 05:09:34;;;;;;;18.80;16.60;;;;;;;;;;5031660;28;20489;-76
2022/08/15 05:12:00;;;;;;;19.05;16.90;;;;;;;;;;5021905;28;20093;-76
2022/08/15 05:14:26;;;;;;;23.42;16.88;;;;;;;;;;5018147;28;20042;-77
2022/08/15 05:16:55;;;;;;;18.63;16.38;;;;;;;;;;5023606;28;20053;-76
2022/08/15 05:19:21;;;;;;;21.58;18.15;;;;;;;;;;5014170;28;20118;-77
2022/08/15 05:21:47;;;;;;;19.20;16.77;;;;;;;;;;5017107;28;20042;-75
2022/08/15 05:24:13;;;;;;;19.25;16.83;;;;;;;;;;5011211;28;20034;-76
2022/08/15 05:26:42;;;;;;;19.63;16.90;;;;;;;;;;5009933;28;20124;-77
2022/08/15 05:29:08;;;;;;;20.13;16.67;;;;;;;;;;5013160;28;20038;-76
2022/08/15 05:31:35;;;;;;;17.23;15.40;;;;;;;;;;5012682;28;20058;-77
2022/08/15 05:34:01;;;;;;;22.13;16.98;;;;;;;;;;5012727;28;20049;-77
2022/08/15 05:36:28;;;;;;;19.42;17.33;;;;;;;;;;5015084;28;20046;-76
2022/08/15 05:39:18;;;;;;;21.25;16.70;;;;;;;;;;5016070;28;20049;-76
2022/08/15 05:41:45;;;;;;;22.42;19.48;;;;;;;;;;5016544;28;20108;-76
2022/08/15 05:44:31;;;;;;;24.42;18.52;;;;;;;;;;5016823;28;20069;-75
2022/08/15 05:47:00;;;;;;;20.38;18.15;;;;;;;;;;5017245;28;20136;-76
2022/08/15 05:49:51;;;;;;;20.15;18.08;;;;;;;;;;5017315;28;20505;-76
2022/08/15 05:52:37;;;;;;;19.50;17.40;;;;;;;;;;5028797;28;20042;-76
2022/08/15 05:55:23;;;;;;;19.70;16.90;;;;;;;;;;5028637;28;20125;-77
2022/08/15 05:58:01;;;;;;;19.08;16.83;;;;;;;;;;5031085;28;20536;-76
2022/08/15 06:00:28;;;;;;;19.80;17.63;;;;;;;;;;5039779;28;20061;-77
2022/08/15 06:02:59;;;;;;;19.38;17.30;;;;;;;;;;5037561;28;20046;-76
2022/08/15 06:05:32;;;;;;;22.05;18.42;;;;;;;;;;5038015;28;20149;-76
2022/08/15 06:08:01;;;;;;;22.15;17.60;;;;;;;;;;5038190;28;20061;-75
2022/08/15 06:10:35;;;;;;;19.02;17.02;;;;;;;;;;5035714;28;20045;-75
2022/08/15 06:13:05;;;;;;;19.85;17.17;;;;;;;;;;5039700;28;20102;-77
2022/08/15 06:15:46;;;;;;;19.27;16.40;;;;;;;;;;5039308;28;20098;-75
2022/08/15 06:18:14;;;;;;;19.63;17.55;;;;;;;;;;5039090;28;20038;-75
2022/08/15 06:20:59;;;;;;;20.95;17.75;;;;;;;;;;5039578;28;20045;-76
2022/08/15 06:23:29;;;;;;;19.33;17.30;;;;;;;;;;5039101;28;20049;-78
2022/08/15 06:25:59;;;;;;;19.65;17.65;;;;;;;;;;5036065;28;20053;-76
2022/08/15 06:28:44;;;;;;;18.63;16.67;;;;;;;;;;5037507;28;20045;-76
2022/08/15 06:31:10;;;;;;;19.80;17.70;;;;;;;;;;5038656;28;20049;-76
2022/08/15 06:33:44;;;;;;;19.38;17.33;;;;;;;;;;5039115;28;20038;-75
2022/08/15 06:36:16;;;;;;;20.92;17.17;;;;;;;;;;5039474;28;20040;-76
2022/08/15 06:38:43;;;;;;;19.35;16.52;;;;;;;;;;5038962;28;20072;-76
2022/08/15 06:41:15;;;;;;;18.67;16.60;;;;;;;;;;5019391;28;20042;-76
2022/08/15 06:43:44;;;;;;;19.02;16.92;;;;;;;;;;5018016;28;20056;-75
2022/08/15 06:46:10;;;;;;;20.30;18.17;;;;;;;;;;5034771;28;20089;-77
2022/08/15 06:48:38;;;;;;;19.50;16.45;;;;;;;;;;5034400;28;20065;-76
2022/08/15 06:51:06;;;;;;;19.98;17.35;;;;;;;;;;5036754;28;20022;-76
2022/08/15 06:53:51;;;;;;;19.67;16.55;;;;;;;;;;5036080;28;20038;-77
2022/08/15 06:56:21;;;;;;;19.15;17.15;;;;;;;;;;5037434;28;20101;-76
2022/08/15 06:58:47;;;;;;;19.13;16.67;;;;;;;;;;5028616;28;20069;-77
2022/08/15 07:01:23;;;;;;;18.90;16.95;;;;;;;;;;5050432;28;20041;-77
2022/08/15 07:03:49;;;;;;;;;;;;;;;;;;5038447;28;20401;-78
2022/08/15 07:06:17;;;;;;;18.90;15.95;;;;;;;;;;5035851;28;19921;-78
2022/08/15 07:08:51;;;;;;;19.58;17.50;;;;;;;;;;5020218;28;20042;-78
2022/08/15 07:11:22;;;;;;;18.77;16.80;;;;;;;;;;5031068;28;20046;-79
2022/08/15 07:14:17;;;;;;;19.98;16.25;;;;;;;;;;4999662;28;20064;-79
2022/08/15 07:16:50;;;;;;;21.20;17.30;;;;;;;;;;5017055;28;20046;-79
2022/08/15 07:19:17;;;;;;;22.55;18.08;;;;;;;;;;5016650;28;20045;-78
2022/08/15 07:21:43;;;;;;;20.65;17.33;;;;;;;;;;5016427;28;20046;-78
2022/08/15 07:24:11;;;;;;;20.42;17.33;;;;;;;;;;5016424;28;20073;-78
2022/08/15 07:27:13;;;;;;;20.23;17.23;;;;;;;;;;5018667;28;20046;-77
2022/08/15 07:29:49;;;;;;;19.00;16.95;;;;;;;;;;5020564;28;20046;-77
2022/08/15 07:32:18;;;;;;;21.08;17.40;;;;;;;;;;5020228;28;20054;-76
2022/08/15 07:34:55;;;;;;;18.50;15.88;;;;;;;;;;5021039;28;20076;-76
2022/08/15 07:37:22;;;;;;;18.98;16.55;;;;;;;;;;5021215;28;20058;-76
2022/08/15 07:39:58;;;;;;;20.55;16.17;;;;;;;;;;5018440;28;20049;-77
2022/08/15 07:42:23;;;;;;;;;;;;;;;;;;5020718;28;20046;-78
2022/08/15 07:44:49;;;;;;;;;;;;;;;;;;5015136;28;20327;-78
2022/08/15 07:47:20;;;;;;;20.15;17.85;;;;;;;;;;5013916;28;20379;-78
2022/08/15 07:49:58;;;;;;;18.55;16.65;;;;;;;;;;5013101;28;20200;-78
2022/08/15 07:52:24;;;;;;;23.70;15.45;;;;;;;;;;5018055;28;20066;-77
2022/08/15 07:54:55;;;;;;;17.70;16.00;;;;;;;;;;5015744;28;20455;-78
2022/08/15 07:57:24;;;;;;;16.35;14.73;;;;;;;;;;5016253;28;20481;-78
2022/08/15 08:00:06;;;;;;;16.88;14.40;;;;;;;;;;5016160;28;20049;-78
2022/08/15 08:02:41;;;;;;;15.63;14.13;;;;;;;;;;5013362;28;20037;-77
2022/08/15 08:05:08;;;;;;;15.93;14.32;;;;;;;;;;5018003;28;20056;-77
2022/08/15 08:07:40;;;;;;;17.80;15.75;;;;;;;;;;5017508;28;20038;-78
2022/08/15 08:10:12;;;;;;;18.55;15.00;;;;;;;;;;5019716;28;20052;-77
2022/08/15 08:12:41;;;;;;;17.10;14.68;;;;;;;;;;5006356;28;20121;-77
2022/08/15 08:15:07;;;;;;;16.05;14.35;;;;;;;;;;5032798;28;20045;-77
2022/08/15 08:17:38;;;;;;;15.80;14.15;;;;;;;;;;5022553;28;20044;-76
2022/08/15 08:20:23;;;;;;;15.10;13.27;;;;;;;;;;5022236;28;20184;-77
2022/08/15 08:23:01;;;;;;;14.68;13.07;;;;;;;;;;5020425;28;20046;-78
2022/08/15 08:25:30;;;;;;;14.30;12.90;;;;;;;;;;5005798;28;20047;-78
2022/08/15 08:28:02;;;;;;;14.45;12.95;;;;;;;;;;5019085;28;20362;-78
2022/08/15 08:30:34;;;;;;;15.88;14.30;;;;;;;;;;5017891;28;20129;-78
2022/08/15 08:33:12;;;;;;;14.77;13.27;;;;;;;;;;5017927;28;20125;-79
2022/08/15 08:35:38;;;;;;;16.20;14.35;;;;;;;;;;5021520;28;20041;-78
2022/08/15 08:38:07;;;;;;;16.08;14.02;;;;;;;;;;5023686;28;20151;-78
2022/08/15 08:43:21;;;;;;;18.00;16.10;;;;;;;;;;5019601;28;20485;-77
2022/08/15 08:45:53;;;;;;;19.23;17.23;;;;;;;;;;5022327;28;20085;-76
2022/08/15 08:48:25;;;;;;;19.02;16.98;;;;;;;;;;5021389;28;20057;-77
2022/08/15 08:51:34;;;;;;;19.67;17.52;;;;;;;;;;5012646;28;20117;-79
2022/08/15 08:54:01;;;;;;;18.00;16.10;;;;;;;;;;5023378;28;20197;-78
2022/08/15 08:56:33;;;;;;;19.42;17.42;;;;;;;;;;5020726;28;20100;-77
2022/08/15 08:59:19;;;;;;;19.85;17.48;;;;;;;;;;5020572;28;20050;-78
2022/08/15 09:01:49;;;;;;;18.80;16.85;;;;;;;;;;5021859;28;20600;-76
2022/08/15 09:04:17;;;;;;;19.75;17.65;;;;;;;;;;5020376;28;20045;-77
2022/08/15 09:06:46;;;;;;;19.10;17.10;;;;;;;;;;5018421;28;20096;-77
2022/08/15 09:09:23;;;;;;;19.30;17.35;;;;;;;;;;5015396;28;20049;-77
2022/08/15 09:11:54;;;;;;;20.52;17.45;;;;;;;;;;5017213;28;20065;-77
2022/08/15 09:14:23;;;;;;;19.42;17.13;;;;;;;;;;5018111;28;20479;-77
2022/08/15 09:16:51;;;;;;;19.77;17.77;;;;;;;;;;5020747;28;20042;-77
2022/08/15 09:19:28;;;;;;;18.02;16.23;;;;;;;;;;5002498;28;20129;-77
2022/08/15 09:21:55;;;;;;;20.55;18.40;;;;;;;;;;5020851;28;20042;-77
2022/08/15 09:24:22;;;;;;;21.10;18.15;;;;;;;;;;5028593;28;20084;-79
2022/08/15 09:27:04;;;;;;;19.38;17.40;;;;;;;;;;5024940;28;20509;-78
2022/08/15 09:29:34;;;;;;;20.60;17.52;;;;;;;;;;5022453;28;20148;-77
2022/08/15 09:32:19;;;;;;;20.67;18.50;;;;;;;;;;5021077;28;20130;-77
2022/08/15 09:34:54;;;;;;;20.88;18.48;;;;;;;;;;5019349;28;20472;-77
2022/08/15 09:37:29;;;;;;;21.52;17.60;;;;;;;;;;5019265;28;20049;-78
2022/08/15 09:39:55;;;;;;;;;;;;;;;;;;5020381;28;20042;-76
2022/08/15 09:42:21;;;;;;;;;;;;;;;;;;5018917;28;19944;-76
2022/08/15 09:44:54;;;;;;;22.15;17.75;;;;;;;;;;5018069;28;20375;-76
2022/08/15 09:47:35;;;;;;;17.25;15.43;;;;;;;;;;5018500;28;20405;-77
2022/08/15 09:50:20;;;;;;;17.50;15.63;;;;;;;;;;5020336;28;20073;-76
2022/08/15 09:52:55;;;;;;;18.60;16.08;;;;;;;;;;5022443;28;20049;-79
2022/08/15 09:55:31;;;;;;;19.20;16.20;;;;;;;;;;5021514;28;20069;-77
2022/08/15 09:57:57;;;;;;;;;;;;;;;;;;5018942;28;20050;-76
2022/08/15 10:00:38;;;;;;;17.73;15.93;;;;;;;;;;5015459;28;19975;-77
2022/08/15 10:03:07;;;;;;;17.27;15.57;;;;;;;;;;5013502;28;20049;-78
2022/08/15 10:05:47;;;;;;;14.90;13.35;;;;;;;;;;5016898;28;20401;-81
2022/08/15 10:08:14;;;;;;;18.05;14.65;;;;;;;;;;5013352;28;20373;-78
2022/08/15 10:11:10;;;;;;;14.05;12.70;;;;;;;;;;5018286;28;20034;-78
2022/08/15 10:13:45;;;;;;;14.57;13.07;;;;;;;;;;5005018;28;20136;-78
2022/08/15 10:16:41;;;;;;;13.18;11.68;;;;;;;;;;5014698;28;20069;-78
2022/08/15 10:19:09;;;;;;;14.20;11.73;;;;;;;;;;5029764;28;20045;-79
2022/08/15 10:21:39;;;;;;;12.38;11.07;;;;;;;;;;5033953;28;20045;-78
2022/08/15 10:24:23;;;;;;;13.20;11.90;;;;;;;;;;5010403;28;20045;-78
2022/08/15 10:27:09;;;;;;;14.20;11.98;;;;;;;;;;5019763;28;20042;-78
2022/08/15 10:29:36;;;;;;;12.57;11.27;;;;;;;;;;5030011;28;20092;-78
2022/08/15 10:32:03;;;;;;;12.43;11.32;;;;;;;;;;5013431;28;20494;-77
2022/08/15 10:34:41;;;;;;;15.10;12.45;;;;;;;;;;5014925;28;20069;-76
2022/08/15 10:37:16;;;;;;;12.38;11.07;;;;;;;;;;5030523;28;20049;-77
2022/08/15 10:39:51;;;;;;;12.18;10.70;;;;;;;;;;5028222;28;20575;-78
2022/08/15 10:42:27;;;;;;;13.05;11.60;;;;;;;;;;5013172;28;20108;-77
2022/08/15 10:44:53;;;;;;;12.25;10.95;;;;;;;;;;5015021;28;20065;-78
2022/08/15 10:47:19;;;;;;;12.25;10.70;;;;;;;;;;5009870;28;20121;-78
2022/08/15 10:49:57;;;;;;;11.38;10.27;;;;;;;;;;5035211;28;20042;-77
2022/08/15 10:52:35;;;;;;;11.73;10.52;;;;;;;;;;5020710;28;20481;-78
2022/08/15 10:55:17;;;;;;;12.48;11.13;;;;;;;;;;5029539;28;20076;-78
2022/08/15 10:57:47;;;;;;;12.85;11.60;;;;;;;;;;5003766;28;20052;-78
2022/08/15 11:00:37;;;;;;;12.48;11.27;;;;;;;;;;5015103;28;20237;-78
2022/08/15 11:03:04;;;;;;;13.60;11.82;;;;;;;;;;5020379;28;20053;-79
2022/08/15 11:05:30;;;;;;;13.45;12.25;;;;;;;;;;5028777;28;20122;-78
2022/08/15 11:07:56;;;;;;;13.95;12.55;;;;;;;;;;5018078;28;20507;-78
2022/08/15 11:10:25;;;;;;;12.82;11.52;;;;;;;;;;5020363;28;20044;-78
2022/08/15 11:12:57;;;;;;;13.75;12.25;;;;;;;;;;4972104;28;20089;-78
2022/08/15 11:15:32;;;;;;;13.05;11.75;;;;;;;;;;4988324;28;20046;-78
2022/08/15 11:18:08;;;;;;;13.70;12.38;;;;;;;;;;4981103;28;20108;-78
2022/08/15 11:20:40;;;;;;;13.50;12.10;;;;;;;;;;4980009;28;20066;-78
2022/08/15 11:23:07;;;;;;;12.80;11.50;;;;;;;;;;4967678;28;20217;-78
2022/08/15 11:25:34;;;;;;;13.93;12.60;;;;;;;;;;4973213;28;20053;-78
2022/08/15 11:28:03;;;;;;;13.05;11.75;;;;;;;;;;4970289;28;20459;-77
2022/08/15 11:30:31;;;;;;;13.75;12.15;;;;;;;;;;4966682;28;20094;-78
2022/08/15 11:33:16;;;;;;;13.18;11.88;;;;;;;;;;4981588;28;20403;-78
2022/08/15 11:35:43;;;;;;;14.32;12.07;;;;;;;;;;4974995;28;20126;-79
2022/08/15 11:38:09;;;;;;;41.83;12.95;;;;;;;;;;4977528;28;20505;-76
2022/08/15 11:40:41;;;;;;;12.43;11.23;;;;;;;;;;4980469;28;20094;-78
2022/08/15 11:43:13;;;;;;;13.07;11.57;;;;;;;;;;4976495;28;20046;-83
2022/08/15 11:45:45;;;;;;;13.10;11.80;;;;;;;;;;4985640;28;20486;-77
2022/08/15 11:48:13;;;;;;;12.40;11.20;;;;;;;;;;4992400;28;20046;-76
2022/08/15 11:50:41;;;;;;;13.25;11.00;;;;;;;;;;4975138;28;20116;-75
2022/08/15 11:53:09;;;;;;;23.77;17.35;;;;;;;;;;4979202;28;20078;-76
2022/08/15 11:55:39;;;;;;;22.70;20.40;;;;;;;;;;4994132;28;20530;-76
2022/08/15 11:58:11;;;;;;;25.13;19.55;;;;;;;;;;4964163;28;20055;-76
2022/08/15 12:00:42;;;;;;;19.85;17.75;;;;;;;;;;4989289;28;20046;-76
2022/08/15 12:03:17;;;;;;;23.63;20.77;;;;;;;;;;4992877;28;20049;-76
2022/08/15 12:05:43;;;;;;;21.30;19.10;;;;;;;;;;4991264;28;20046;-76
2022/08/15 12:08:09;;;;;;;24.80;20.65;;;;;;;;;;4976084;28;20406;-77
2022/08/15 12:10:38;;;;;;;23.08;20.67;;;;;;;;;;4974656;28;20466;-77
2022/08/15 12:13:04;;;;;;;23.25;19.35;;;;;;;;;;4978534;28;20093;-77
2022/08/15 12:15:33;;;;;;;20.08;17.08;;;;;;;;;;4993718;28;20533;-77
2022/08/15 12:18:11;;;;;;;20.08;16.92;;;;;;;;;;4982872;28;20505;-77
2022/08/15 12:20:47;;;;;;;21.02;17.27;;;;;;;;;;4974898;28;20177;-77
2022/08/15 12:23:23;;;;;;;19.17;17.27;;;;;;;;;;4988346;28;20053;-77
2022/08/15 12:25:56;;;;;;;19.50;17.15;;;;;;;;;;4994158;28;20042;-86
2022/08/15 12:28:22;;;;;;;20.48;18.38;;;;;;;;;;4966835;28;20053;-77
2022/08/15 12:30:49;;;;;;;17.70;15.60;;;;;;;;;;4954748;28;20046;-77
2022/08/15 12:33:15;;;;;;;19.90;17.80;;;;;;;;;;4966038;28;20127;-77
2022/08/15 12:35:43;;;;;;;18.48;16.58;;;;;;;;;;4978223;28;20114;-76
2022/08/15 12:38:09;;;;;;;19.33;17.33;;;;;;;;;;4979781;28;20042;-77
2022/08/15 12:40:36;;;;;;;18.73;15.32;;;;;;;;;;4982485;28;20039;-75
2022/08/15 12:43:02;;;;;;;18.50;16.60;;;;;;;;;;4985039;28;20050;-77
2022/08/15 12:45:28;;;;;;;18.15;15.70;;;;;;;;;;4979782;28;20058;-76
2022/08/15 12:47:55;;;;;;;20.08;17.88;;;;;;;;;;4984261;28;20117;-76
2022/08/15 12:50:21;;;;;;;17.25;14.15;;;;;;;;;;4986652;28;20478;-76
2022/08/15 12:52:48;;;;;;;23.80;16.08;;;;;;;;;;4974441;28;20055;-81
2022/08/15 12:55:14;;;;;;;18.83;15.90;;;;;;;;;;4993660;28;20053;-82
2022/08/15 12:57:40;;;;;;;17.27;14.52;;;;;;;;;;4993181;28;20097;-78
2022/08/15 13:00:07;;;;;;;16.42;13.40;;;;;;;;;;4993707;28;20085;-76
2022/08/15 13:02:36;;;;;;;16.48;14.77;;;;;;;;;;4970359;28;20042;-77
2022/08/15 13:05:05;;;;;;;15.98;14.27;;;;;;;;;;4973155;28;20047;-78
2022/08/15 13:07:31;;;;;;;16.85;13.85;;;;;;;;;;4973139;28;20118;-77
2022/08/15 13:09:57;;;;;;;14.40;12.82;;;;;;;;;;4973710;28;20046;-77
2022/08/15 13:12:23;;;;;;;14.88;13.38;;;;;;;;;;4966032;28;20411;-78
2022/08/15 13:14:49;;;;;;;12.95;11.65;;;;;;;;;;4954470;29;20588;-77
2022/08/15 13:17:16;;;;;;;14.13;9.70;;;;;;;;;;4964126;28;20043;-76
2022/08/15 13:25:14;;;;;;;12.10;8.75;;;;;;;;;;4973006;28;20049;-76
2022/08/15 13:27:40;;;;;;;11.35;10.15;;;;;;;;;;4972783;28;20043;-76
2022/08/15 13:30:08;;;;;;;11.15;8.80;;;;;;;;;;4973529;28;20122;-76
2022/08/15 13:32:36;;;;;;;10.73;9.40;;;;;;;;;;4971090;28;20138;-76
2022/08/15 13:35:02;;;;;;;11.38;10.23;;;;;;;;;;4973439;28;20055;-76
2022/08/15 13:37:28;;;;;;;10.75;9.75;;;;;;;;;;4973363;28;20101;-76
2022/08/15 13:39:55;;;;;;;13.32;12.07;;;;;;;;;;4973348;28;20407;-75
2022/08/15 13:42:22;;;;;;;12.40;11.05;;;;;;;;;;4972239;28;20050;-76
2022/08/15 13:44:48;;;;;;;11.40;10.32;;;;;;;;;;4969130;28;20403;-76
2022/08/15 13:47:16;;;;;;;10.85;9.20;;;;;;;;;;4970953;28;20469;-76
2022/08/15 13:49:43;;;;;;;9.60;8.70;;;;;;;;;;4971817;28;20047;-75
2022/08/15 13:52:10;;;;;;;7.88;7.07;;;;;;;;;;4971111;28;20045;-76
2022/08/15 13:54:36;;;;;;;7.95;7.15;;;;;;;;;;4972835;28;20054;-75
2022/08/15 13:57:02;;;;;;;8.55;7.13;;;;;;;;;;4974573;28;20054;-80
2022/08/15 13:59:30;;;;;;;8.63;7.45;;;;;;;;;;4969072;28;20043;-76
2022/08/15 14:01:56;;;;;;;10.40;9.35;;;;;;;;;;4967498;28;20050;-76
2022/08/15 14:04:25;;;;;;;9.95;8.75;;;;;;;;;;4970073;28;20574;-76
2022/08/15 14:06:52;;;;;;;12.13;10.00;;;;;;;;;;4957198;28;20503;-76
2022/08/15 14:09:18;;;;;;;10.75;9.52;;;;;;;;;;4970090;28;20062;-76
2022/08/15 14:11:44;;;;;;;12.30;10.13;;;;;;;;;;4976033;28;20043;-75
2022/08/15 14:14:11;;;;;;;12.23;11.02;;;;;;;;;;4974871;28;20074;-76
2022/08/15 14:16:41;;;;;;;11.23;10.13;;;;;;;;;;4973029;28;20070;-78
2022/08/15 14:19:08;;;;;;;12.43;11.23;;;;;;;;;;4971729;28;20050;-76
2022/08/15 14:21:34;;;;;;;13.05;11.75;;;;;;;;;;4975201;28;20410;-77
2022/08/15 14:24:01;;;;;;;12.13;10.98;;;;;;;;;;4973812;28;20046;-77
2022/08/15 14:26:30;;;;;;;11.55;10.32;;;;;;;;;;4975449;28;20125;-76
2022/08/15 14:28:56;;;;;;;10.07;9.15;;;;;;;;;;4974535;28;20486;-78
2022/08/15 14:31:22;;;;;;;9.63;8.63;;;;;;;;;;4969071;28;20129;-77
2022/08/15 14:33:48;;;;;;;11.77;9.02;;;;;;;;;;4975939;28;20050;-76
2022/08/15 14:36:15;;;;;;;11.30;8.70;;;;;;;;;;4973398;28;20050;-78
2022/08/15 14:38:42;;;;;;;10.35;9.35;;;;;;;;;;4976230;28;20078;-78
2022/08/15 14:41:09;;;;;;;11.75;9.48;;;;;;;;;;4972359;28;20413;-77
2022/08/15 14:43:35;;;;;;;13.43;8.80;;;;;;;;;;4969709;28;20043;-76
2022/08/15 14:46:04;;;;;;;10.63;9.52;;;;;;;;;;4970132;28;20429;-76